• Join FlightAware (Why Join?)
  • Login
  • US Flag 
Rudolph Flight #1: Arrived! 
09:46PM EST


 

Airport Tracker/Info


-or-


 

Live Flight TrackerFlight Track Log ✈ DAL3682 ✈ 15-Jun-2013 ✈ KAVL - KATL

Flight Track Log - Related Links

Times and Time Zones

All times are in EDT time to prevent confusion due to time zone crossing. See the DAL3682 flight status page for this flight to view local times or setup timezone preferences in your user account.

Time Position Orientation Groundspeed Altitude Reporting Facility
EDT Latitude Longitude Course Direction KTS MPH feet Rate Location/Type
05:48PM 35.5450 -82.6017 336° Northwest 238 274 6,600  Level Atlanta Center
05:49PM 35.2185 -82.7483 219° Southwest  Level FlightAware Approximate
05:49PM 35.5269 -82.6736 253° West 205 236 8,700  Level Atlanta Center
05:50PM 35.1469 -82.8198 219° Southwest  Level FlightAware Approximate
05:50PM 35.4506 -82.7283 210° Southwest 225 259 10,000  Level Atlanta Center
05:51PM 35.0786 -82.8959 223° Southwest  Level FlightAware Approximate
05:51PM 35.3636 -82.7933 211° Southwest 299 344 10,300  Level Atlanta Center
05:52PM 35.0104 -82.9719 214° Southwest  Level FlightAware Approximate
05:52PM 35.2847 -82.8481 210° Southwest 335 386 13,400  Level Atlanta Center
05:53PM 35.2042 -82.9203 216° Southwest 347 399 14,000 300 Climbing Atlanta Center
05:54PM 35.1233 -82.9875 214° Southwest 352 405 14,000  Level Atlanta Center
05:55PM 35.0467 -83.0519 215° Southwest 352 405 14,000  Level Atlanta Center
05:56PM 34.9700 -83.1186 215° Southwest 347 399 14,000  Level Atlanta Center
05:57PM 34.8889 -83.1803 212° Southwest 347 399 14,000  Level Atlanta Center
05:58PM 34.8122 -83.2469 216° Southwest 347 399 14,000  Level Atlanta Center
05:59PM 34.7333 -83.3108 214° Southwest 352 405 14,000  Level Atlanta Center
06:00PM 34.6439 -83.3850 214° Southwest 375 432 14,000  Level Atlanta Center
06:01PM 34.5589 -83.4561 215° Southwest 375 432 14,000  Level Atlanta Center
06:02PM 34.4797 -83.5197 214° Southwest 375 432 14,000  Level Atlanta Center
06:03PM 34.3925 -83.5933 215° Southwest 381 438 14,000  Level Atlanta Center
06:04PM 34.3092 -83.6642 215° Southwest 381 438 14,000  Level Atlanta Center
06:05PM 34.2217 -83.7372 215° Southwest 381 438 14,000  Level Atlanta Center
06:06PM 34.1322 -83.8078 213° Southwest 381 438 14,000  Level Atlanta Center
06:07PM 34.0500 -83.8833 217° Southwest 377 434 14,000 -660 Level Atlanta TRACON
06:08PM 33.9667 -83.9667 220° Southwest 371 427 12,800 -1,020 Descending Atlanta TRACON
06:09PM 33.9000 -84.0500 226° Southwest 366 421 12,000 -480 Descending Atlanta TRACON
06:10PM 33.8333 -84.1000 212° Southwest 361 415 12,000  Level Atlanta TRACON
06:11PM 33.7500 -84.1667 214° Southwest 260 299 12,000  Level Atlanta TRACON
06:12PM 33.7333 -84.2333 253° West 246 283 12,100 -120 Climbing Atlanta TRACON
06:13PM 33.7333 -84.3167 270° West 247 284 11,800 -780 Descending Atlanta TRACON
06:14PM 33.7333 -84.4000 270° West 245 282 10,600 -1,440 Descending Atlanta TRACON
06:15PM 33.7333 -84.4667 270° West 244 281 9,000 -1,500 Descending Atlanta TRACON
06:16PM 33.7333 -84.5500 270° West 214 246 7,600 -1,500 Descending Atlanta TRACON
06:17PM 33.7333 -84.6167 270° West 204 235 6,100 -1,740 Descending Atlanta TRACON
06:18PM 33.6833 -84.6333 196° South 187 215 4,200 -1,920 Descending Atlanta TRACON